sensor_id;sensor_type;location;lat;lon;timestamp;pressure;altitude;pressure_sealevel;temperature;humidity
28181;BME280;15464;50.988;10.318;2023-01-27T00:00:49;99396.19;;;-1.23;100.00
28181;BME280;15464;50.988;10.318;2023-01-27T00:03:16;99390.31;;;-1.30;100.00
28181;BME280;15464;50.988;10.318;2023-01-27T00:05:44;99398.06;;;-1.28;100.00
28181;BME280;15464;50.988;10.318;2023-01-27T00:08:12;99397.88;;;-1.22;100.00
28181;BME280;15464;50.988;10.318;2023-01-27T00:10:39;99398.00;;;-1.25;100.00
28181;BME280;15464;50.988;10.318;2023-01-27T00:13:06;99399.59;;;-1.21;100.00
28181;BME280;15464;50.988;10.318;2023-01-27T00:15:51;99396.22;;;-1.25;100.00
28181;BME280;15464;50.988;10.318;2023-01-27T00:18:18;99397.69;;;-1.16;100.00
28181;BME280;15464;50.988;10.318;2023-01-27T00:20:45;99401.19;;;-1.17;100.00
28181;BME280;15464;50.988;10.318;2023-01-27T00:23:31;99396.84;;;-1.16;100.00
28181;BME280;15464;50.988;10.318;2023-01-27T00:26:17;99393.38;;;-1.17;100.00
28181;BME280;15464;50.988;10.318;2023-01-27T00:28:45;99388.22;;;-1.18;100.00
28181;BME280;15464;50.988;10.318;2023-01-27T00:31:14;99394.28;;;-1.18;100.00
28181;BME280;15464;50.988;10.318;2023-01-27T00:34:00;99396.81;;;-1.15;100.00
28181;BME280;15464;50.988;10.318;2023-01-27T00:36:39;99394.34;;;-1.19;100.00
28181;BME280;15464;50.988;10.318;2023-01-27T00:39:08;99399.59;;;-1.21;100.00
28181;BME280;15464;50.988;10.318;2023-01-27T00:41:36;99389.09;;;-1.18;100.00
28181;BME280;15464;50.988;10.318;2023-01-27T00:44:03;99394.25;;;-1.16;100.00
28181;BME280;15464;50.988;10.318;2023-01-27T00:46:31;99388.19;;;-1.17;100.00
28181;BME280;15464;50.988;10.318;2023-01-27T00:48:58;99384.59;;;-1.13;100.00
28181;BME280;15464;50.988;10.318;2023-01-27T00:51:25;99385.44;;;-1.12;100.00
28181;BME280;15464;50.988;10.318;2023-01-27T00:53:52;99383.69;;;-1.12;100.00
28181;BME280;15464;50.988;10.318;2023-01-27T00:56:18;99387.09;;;-1.10;100.00
28181;BME280;15464;50.988;10.318;2023-01-27T00:58:45;99389.66;;;-1.08;100.00
28181;BME280;15464;50.988;10.318;2023-01-27T01:01:14;99389.69;;;-1.10;100.00
28181;BME280;15464;50.988;10.318;2023-01-27T01:03:41;99397.44;;;-1.07;100.00
28181;BME280;15464;50.988;10.318;2023-01-27T01:06:11;99390.59;;;-1.11;100.00
28181;BME280;15464;50.988;10.318;2023-01-27T01:08:38;99394.00;;;-1.09;100.00
28181;BME280;15464;50.988;10.318;2023-01-27T01:11:06;99392.16;;;-1.05;100.00
28181;BME280;15464;50.988;10.318;2023-01-27T01:13:33;99395.53;;;-1.02;100.00
28181;BME280;15464;50.988;10.318;2023-01-27T01:16:12;99396.44;;;-1.03;100.00
28181;BME280;15464;50.988;10.318;2023-01-27T01:18:39;99397.25;;;-1.01;100.00
28181;BME280;15464;50.988;10.318;2023-01-27T01:21:06;99393.59;;;-0.95;100.00
28181;BME280;15464;50.988;10.318;2023-01-27T01:23:36;99393.16;;;-1.09;100.00
28181;BME280;15464;50.988;10.318;2023-01-27T01:26:03;99390.53;;;-1.08;100.00
28181;BME280;15464;50.988;10.318;2023-01-27T01:28:30;99393.78;;;-1.01;100.00
28181;BME280;15464;50.988;10.318;2023-01-27T01:31:06;99397.13;;;-0.98;100.00
28181;BME280;15464;50.988;10.318;2023-01-27T01:33:35;99395.56;;;-1.03;100.00
28181;BME280;15464;50.988;10.318;2023-01-27T01:36:10;99399.22;;;-1.09;100.00
28181;BME280;15464;50.988;10.318;2023-01-27T01:38:37;99397.31;;;-1.04;100.00
28181;BME280;15464;50.988;10.318;2023-01-27T01:41:05;99397.97;;;-0.97;100.00
28181;BME280;15464;50.988;10.318;2023-01-27T01:43:32;99400.72;;;-1.02;100.00
28181;BME280;15464;50.988;10.318;2023-01-27T01:46:01;99402.69;;;-1.08;100.00
28181;BME280;15464;50.988;10.318;2023-01-27T01:48:34;99399.88;;;-1.02;100.00
28181;BME280;15464;50.988;10.318;2023-01-27T01:53:33;99402.53;;;-1.04;100.00
28181;BME280;15464;50.988;10.318;2023-01-27T01:56:06;99406.81;;;-1.01;100.00
28181;BME280;15464;50.988;10.318;2023-01-27T01:58:35;99400.03;;;-1.07;100.00
28181;BME280;15464;50.988;10.318;2023-01-27T02:01:04;99404.22;;;-1.03;100.00
28181;BME280;15464;50.988;10.318;2023-01-27T02:03:33;99400.78;;;-1.03;100.00
28181;BME280;15464;50.988;10.318;2023-01-27T02:06:03;99402.25;;;-0.95;100.00
28181;BME280;15464;50.988;10.318;2023-01-27T02:08:37;99398.19;;;-1.03;100.00
28181;BME280;15464;50.988;10.318;2023-01-27T02:11:07;99403.34;;;-1.02;100.00
28181;BME280;15464;50.988;10.318;2023-01-27T02:13:35;99405.94;;;-1.02;100.00
28181;BME280;15464;50.988;10.318;2023-01-27T02:16:02;99409.13;;;-0.94;100.00
28181;BME280;15464;50.988;10.318;2023-01-27T02:18:29;99403.94;;;-0.94;100.00
28181;BME280;15464;50.988;10.318;2023-01-27T02:20:56;99403.84;;;-0.91;100.00
28181;BME280;15464;50.988;10.318;2023-01-27T02:23:48;99402.94;;;-0.90;100.00
28181;BME280;15464;50.988;10.318;2023-01-27T02:26:35;99404.75;;;-0.92;100.00
28181;BME280;15464;50.988;10.318;2023-01-27T02:29:06;99414.25;;;-0.91;100.00
28181;BME280;15464;50.988;10.318;2023-01-27T02:31:33;99409.06;;;-0.91;100.00
28181;BME280;15464;50.988;10.318;2023-01-27T02:34:20;99404.59;;;-0.87;100.00
28181;BME280;15464;50.988;10.318;2023-01-27T02:36:59;99408.13;;;-0.88;100.00
28181;BME280;15464;50.988;10.318;2023-01-27T02:39:31;99407.16;;;-0.86;100.00
28181;BME280;15464;50.988;10.318;2023-01-27T02:42:00;99411.47;;;-0.85;100.00
28181;BME280;15464;50.988;10.318;2023-01-27T02:44:30;99403.75;;;-0.88;100.00
28181;BME280;15464;50.988;10.318;2023-01-27T02:46:57;99401.94;;;-0.86;100.00
28181;BME280;15464;50.988;10.318;2023-01-27T02:49:24;99401.84;;;-0.83;100.00
28181;BME280;15464;50.988;10.318;2023-01-27T02:51:50;99402.72;;;-0.82;100.00
28181;BME280;15464;50.988;10.318;2023-01-27T02:54:17;99404.34;;;-0.79;100.00
28181;BME280;15464;50.988;10.318;2023-01-27T02:56:44;99409.50;;;-0.78;100.00
28181;BME280;15464;50.988;10.318;2023-01-27T02:59:10;99413.88;;;-0.78;100.00
28181;BME280;15464;50.988;10.318;2023-01-27T03:01:37;99408.56;;;-0.75;100.00
28181;BME280;15464;50.988;10.318;2023-01-27T03:04:04;99419.94;;;-0.78;100.00
28181;BME280;15464;50.988;10.318;2023-01-27T03:06:31;99418.22;;;-0.79;100.00
28181;BME280;15464;50.988;10.318;2023-01-27T03:08:58;99414.22;;;-0.89;100.00
28181;BME280;15464;50.988;10.318;2023-01-27T03:11:24;99419.47;;;-0.91;100.00
28181;BME280;15464;50.988;10.318;2023-01-27T03:14:09;99419.38;;;-0.88;100.00
28181;BME280;15464;50.988;10.318;2023-01-27T03:16:36;99424.72;;;-0.92;100.00
28181;BME280;15464;50.988;10.318;2023-01-27T03:19:21;99423.66;;;-0.87;100.00
28181;BME280;15464;50.988;10.318;2023-01-27T03:21:48;99425.34;;;-0.84;100.00
28181;BME280;15464;50.988;10.318;2023-01-27T03:24:19;99424.41;;;-0.82;100.00
28181;BME280;15464;50.988;10.318;2023-01-27T03:26:46;99433.00;;;-0.79;100.00
28181;BME280;15464;50.988;10.318;2023-01-27T03:29:13;99430.34;;;-0.78;100.00
28181;BME280;15464;50.988;10.318;2023-01-27T03:31:58;99429.41;;;-0.75;100.00
28181;BME280;15464;50.988;10.318;2023-01-27T03:34:25;99432.84;;;-0.75;100.00
28181;BME280;15464;50.988;10.318;2023-01-27T03:36:51;99423.38;;;-0.77;100.00
28181;BME280;15464;50.988;10.318;2023-01-27T03:39:37;99433.81;;;-0.77;100.00
28181;BME280;15464;50.988;10.318;2023-01-27T03:42:22;99434.63;;;-0.75;100.00
28181;BME280;15464;50.988;10.318;2023-01-27T03:45:07;99436.41;;;-0.77;100.00
28181;BME280;15464;50.988;10.318;2023-01-27T03:47:53;99438.00;;;-0.73;100.00
28181;BME280;15464;50.988;10.318;2023-01-27T03:50:19;99434.41;;;-0.69;100.00
28181;BME280;15464;50.988;10.318;2023-01-27T03:52:56;99439.00;;;-0.77;100.00
28181;BME280;15464;50.988;10.318;2023-01-27T03:55:30;99443.25;;;-0.75;100.00
28181;BME280;15464;50.988;10.318;2023-01-27T03:57:57;99443.16;;;-0.72;100.00
28181;BME280;15464;50.988;10.318;2023-01-27T04:00:40;99434.41;;;-0.69;100.00
28181;BME280;15464;50.988;10.318;2023-01-27T04:03:06;99444.72;;;-0.66;100.00
28181;BME280;15464;50.988;10.318;2023-01-27T04:05:52;99447.28;;;-0.65;100.00
28181;BME280;15464;50.988;10.318;2023-01-27T04:08:37;99448.22;;;-0.67;100.00
28181;BME280;15464;50.988;10.318;2023-01-27T04:13:49;99446.63;;;-0.71;100.00
28181;BME280;15464;50.988;10.318;2023-01-27T04:16:16;99441.31;;;-0.68;100.00
28181;BME280;15464;50.988;10.318;2023-01-27T04:18:43;99441.22;;;-0.65;100.00
28181;BME280;15464;50.988;10.318;2023-01-27T04:21:13;99442.25;;;-0.69;100.00
28181;BME280;15464;50.988;10.318;2023-01-27T04:23:40;99441.56;;;-0.76;100.00
28181;BME280;15464;50.988;10.318;2023-01-27T04:26:07;99444.91;;;-0.72;100.00
28181;BME280;15464;50.988;10.318;2023-01-27T04:28:33;99444.00;;;-0.70;100.00
28181;BME280;15464;50.988;10.318;2023-01-27T04:31:10;99443.13;;;-0.70;100.00
28181;BME280;15464;50.988;10.318;2023-01-27T04:33:36;99438.66;;;-0.67;100.00
28181;BME280;15464;50.988;10.318;2023-01-27T04:36:03;99444.66;;;-0.63;100.00
28181;BME280;15464;50.988;10.318;2023-01-27T04:38:30;99446.63;;;-0.71;100.00
28181;BME280;15464;50.988;10.318;2023-01-27T04:40:57;99450.75;;;-0.64;100.00
28181;BME280;15464;50.988;10.318;2023-01-27T04:43:24;99450.56;;;-0.58;100.00
28181;BME280;15464;50.988;10.318;2023-01-27T04:45:50;99456.66;;;-0.59;100.00
28181;BME280;15464;50.988;10.318;2023-01-27T04:48:17;99457.06;;;-0.71;100.00
28181;BME280;15464;50.988;10.318;2023-01-27T04:50:44;99455.25;;;-0.69;100.00
28181;BME280;15464;50.988;10.318;2023-01-27T04:53:10;99462.25;;;-0.71;100.00
28181;BME280;15464;50.988;10.318;2023-01-27T04:55:37;99453.63;;;-0.73;100.00
28181;BME280;15464;50.988;10.318;2023-01-27T04:58:04;99455.34;;;-0.72;100.00
28181;BME280;15464;50.988;10.318;2023-01-27T05:00:30;99456.13;;;-0.69;100.00
28181;BME280;15464;50.988;10.318;2023-01-27T05:02:57;99455.19;;;-0.68;100.00
28181;BME280;15464;50.988;10.318;2023-01-27T05:05:24;99454.25;;;-0.65;100.00
28181;BME280;15464;50.988;10.318;2023-01-27T05:07:51;99459.34;;;-0.62;100.00
28181;BME280;15464;50.988;10.318;2023-01-27T05:10:18;99461.75;;;-0.56;100.00
28181;BME280;15464;50.988;10.318;2023-01-27T05:12:45;99466.88;;;-0.53;100.00
28181;BME280;15464;50.988;10.318;2023-01-27T05:15:11;99460.78;;;-0.52;100.00
28181;BME280;15464;50.988;10.318;2023-01-27T05:17:38;99466.97;;;-0.56;100.00
28181;BME280;15464;50.988;10.318;2023-01-27T05:20:05;99460.81;;;-0.54;100.00
28181;BME280;15464;50.988;10.318;2023-01-27T05:22:32;99462.53;;;-0.53;100.00
28181;BME280;15464;50.988;10.318;2023-01-27T05:24:59;99462.69;;;-0.57;100.00
28181;BME280;15464;50.988;10.318;2023-01-27T05:27:25;99464.34;;;-0.56;100.00
28181;BME280;15464;50.988;10.318;2023-01-27T05:29:52;99461.75;;;-0.56;100.00
28181;BME280;15464;50.988;10.318;2023-01-27T05:32:19;99469.72;;;-0.61;100.00
28181;BME280;15464;50.988;10.318;2023-01-27T05:34:45;99472.16;;;-0.56;100.00
28181;BME280;15464;50.988;10.318;2023-01-27T05:37:12;99473.88;;;-0.55;100.00
28181;BME280;15464;50.988;10.318;2023-01-27T05:39:39;99474.72;;;-0.55;100.00
28181;BME280;15464;50.988;10.318;2023-01-27T05:42:06;99480.72;;;-0.51;100.00
28181;BME280;15464;50.988;10.318;2023-01-27T05:44:33;99487.56;;;-0.49;100.00
28181;BME280;15464;50.988;10.318;2023-01-27T05:46:59;99489.31;;;-0.49;100.00
28181;BME280;15464;50.988;10.318;2023-01-27T05:49:26;99487.63;;;-0.50;100.00
28181;BME280;15464;50.988;10.318;2023-01-27T05:51:53;99496.44;;;-0.54;100.00
28181;BME280;15464;50.988;10.318;2023-01-27T05:54:20;99486.81;;;-0.52;100.00
28181;BME280;15464;50.988;10.318;2023-01-27T05:56:46;99493.75;;;-0.51;100.00
28181;BME280;15464;50.988;10.318;2023-01-27T05:59:13;99495.53;;;-0.53;100.00
28181;BME280;15464;50.988;10.318;2023-01-27T06:01:40;99499.84;;;-0.52;100.00
28181;BME280;15464;50.988;10.318;2023-01-27T06:04:06;99497.25;;;-0.52;100.00
28181;BME280;15464;50.988;10.318;2023-01-27T06:06:33;99488.81;;;-0.60;100.00
28181;BME280;15464;50.988;10.318;2023-01-27T06:09:00;99494.66;;;-0.52;100.00
28181;BME280;15464;50.988;10.318;2023-01-27T06:11:27;99491.13;;;-0.51;100.00
28181;BME280;15464;50.988;10.318;2023-01-27T06:13:54;99499.75;;;-0.49;100.00
28181;BME280;15464;50.988;10.318;2023-01-27T06:16:21;99499.69;;;-0.48;100.00
28181;BME280;15464;50.988;10.318;2023-01-27T06:18:48;99496.03;;;-0.42;100.00
28181;BME280;15464;50.988;10.318;2023-01-27T06:21:17;99498.97;;;-0.51;100.00
28181;BME280;15464;50.988;10.318;2023-01-27T06:23:45;99496.16;;;-0.45;100.00
28181;BME280;15464;50.988;10.318;2023-01-27T06:26:14;99486.63;;;-0.46;100.00
28181;BME280;15464;50.988;10.318;2023-01-27T06:28:44;99493.44;;;-0.42;100.00
28181;BME280;15464;50.988;10.318;2023-01-27T06:31:13;99498.06;;;-0.50;100.00
28181;BME280;15464;50.988;10.318;2023-01-27T06:33:41;99495.19;;;-0.43;100.00
28181;BME280;15464;50.988;10.318;2023-01-27T06:36:11;99502.06;;;-0.40;100.00
28181;BME280;15464;50.988;10.318;2023-01-27T06:38:38;99508.16;;;-0.41;100.00
28181;BME280;15464;50.988;10.318;2023-01-27T06:41:06;99512.38;;;-0.37;100.00
28181;BME280;15464;50.988;10.318;2023-01-27T06:43:33;99503.63;;;-0.34;100.00
28181;BME280;15464;50.988;10.318;2023-01-27T06:46:00;99509.69;;;-0.34;100.00
28181;BME280;15464;50.988;10.318;2023-01-27T06:48:29;99511.28;;;-0.30;100.00
28181;BME280;15464;50.988;10.318;2023-01-27T06:50:56;99510.41;;;-0.30;100.00
28181;BME280;15464;50.988;10.318;2023-01-27T06:53:23;99509.47;;;-0.28;100.00
28181;BME280;15464;50.988;10.318;2023-01-27T06:55:55;99512.19;;;-0.31;100.00
28181;BME280;15464;50.988;10.318;2023-01-27T06:58:22;99510.38;;;-0.29;100.00
28181;BME280;15464;50.988;10.318;2023-01-27T07:00:49;99513.00;;;-0.29;100.00
28181;BME280;15464;50.988;10.318;2023-01-27T07:03:15;99520.09;;;-0.34;100.00
28181;BME280;15464;50.988;10.318;2023-01-27T07:05:42;99515.63;;;-0.30;100.00
28181;BME280;15464;50.988;10.318;2023-01-27T07:08:10;99516.41;;;-0.27;100.00
28181;BME280;15464;50.988;10.318;2023-01-27T07:10:37;99528.53;;;-0.26;100.00
28181;BME280;15464;50.988;10.318;2023-01-27T07:13:09;99524.19;;;-0.25;100.00
28181;BME280;15464;50.988;10.318;2023-01-27T07:15:37;99523.16;;;-0.21;100.00
28181;BME280;15464;50.988;10.318;2023-01-27T07:18:04;99523.22;;;-0.23;100.00
28181;BME280;15464;50.988;10.318;2023-01-27T07:20:32;99534.50;;;-0.22;100.00
28181;BME280;15464;50.988;10.318;2023-01-27T07:23:00;99534.50;;;-0.22;100.00
28181;BME280;15464;50.988;10.318;2023-01-27T07:25:28;99538.00;;;-0.23;100.00
28181;BME280;15464;50.988;10.318;2023-01-27T07:27:59;99537.16;;;-0.24;100.00
28181;BME280;15464;50.988;10.318;2023-01-27T07:30:26;99540.44;;;-0.19;100.00
28181;BME280;15464;50.988;10.318;2023-01-27T07:32:53;99543.06;;;-0.19;100.00
28181;BME280;15464;50.988;10.318;2023-01-27T07:35:21;99540.38;;;-0.16;100.00
28181;BME280;15464;50.988;10.318;2023-01-27T07:37:48;99546.44;;;-0.15;100.00
28181;BME280;15464;50.988;10.318;2023-01-27T07:40:15;99542.03;;;-0.13;100.00
28181;BME280;15464;50.988;10.318;2023-01-27T07:42:42;99538.44;;;-0.11;100.00
28181;BME280;15464;50.988;10.318;2023-01-27T07:45:09;99546.31;;;-0.12;100.00
28181;BME280;15464;50.988;10.318;2023-01-27T07:47:36;99544.53;;;-0.10;100.00
28181;BME280;15464;50.988;10.318;2023-01-27T07:50:03;99549.69;;;-0.09;100.00
28181;BME280;15464;50.988;10.318;2023-01-27T07:52:29;99557.50;;;-0.09;100.00
28181;BME280;15464;50.988;10.318;2023-01-27T07:54:59;99560.06;;;-0.07;100.00
28181;BME280;15464;50.988;10.318;2023-01-27T07:57:26;99568.75;;;-0.07;100.00
28181;BME280;15464;50.988;10.318;2023-01-27T07:59:52;99573.03;;;-0.06;100.00
28181;BME280;15464;50.988;10.318;2023-01-27T08:02:22;99570.38;;;-0.04;100.00
28181;BME280;15464;50.988;10.318;2023-01-27T08:04:49;99580.88;;;-0.06;100.00
28181;BME280;15464;50.988;10.318;2023-01-27T08:07:19;99579.31;;;-0.11;100.00
28181;BME280;15464;50.988;10.318;2023-01-27T08:09:46;99582.00;;;-0.13;100.00
28181;BME280;15464;50.988;10.318;2023-01-27T08:12:13;99585.28;;;-0.08;100.00
28181;BME280;15464;50.988;10.318;2023-01-27T08:14:40;99582.56;;;-0.05;100.00
28181;BME280;15464;50.988;10.318;2023-01-27T08:17:07;99588.69;;;-0.06;100.00
28181;BME280;15464;50.988;10.318;2023-01-27T08:19:33;99586.28;;;-0.12;100.00
28181;BME280;15464;50.988;10.318;2023-01-27T08:22:00;99591.28;;;-0.06;100.00
28181;BME280;15464;50.988;10.318;2023-01-27T08:24:27;99598.22;;;-0.05;100.00
28181;BME280;15464;50.988;10.318;2023-01-27T08:26:54;99590.34;;;-0.03;100.00
28181;BME280;15464;50.988;10.318;2023-01-27T08:29:21;99591.22;;;-0.03;100.00
28181;BME280;15464;50.988;10.318;2023-01-27T08:31:47;99598.91;;;0.00;100.00
28181;BME280;15464;50.988;10.318;2023-01-27T08:34:14;99595.34;;;0.05;100.00
28181;BME280;15464;50.988;10.318;2023-01-27T08:36:42;99602.25;;;0.06;100.00
28181;BME280;15464;50.988;10.318;2023-01-27T08:39:09;99601.44;;;0.04;100.00
28181;BME280;15464;50.988;10.318;2023-01-27T08:41:36;99608.31;;;0.06;100.00
28181;BME280;15464;50.988;10.318;2023-01-27T08:44:04;99604.78;;;0.07;100.00
28181;BME280;15464;50.988;10.318;2023-01-27T08:46:31;99606.41;;;0.11;100.00
28181;BME280;15464;50.988;10.318;2023-01-27T08:48:58;99608.06;;;0.14;100.00
28181;BME280;15464;50.988;10.318;2023-01-27T08:51:24;99611.53;;;0.14;100.00
28181;BME280;15464;50.988;10.318;2023-01-27T08:53:51;99616.72;;;0.14;100.00
28181;BME280;15464;50.988;10.318;2023-01-27T08:56:18;99612.38;;;0.15;100.00
28181;BME280;15464;50.988;10.318;2023-01-27T08:58:45;99619.31;;;0.16;100.00
28181;BME280;15464;50.988;10.318;2023-01-27T09:01:14;99615.03;;;0.13;100.00
28181;BME280;15464;50.988;10.318;2023-01-27T09:03:41;99622.00;;;0.13;100.00
28181;BME280;15464;50.988;10.318;2023-01-27T09:06:10;99619.31;;;0.16;100.00
28181;BME280;15464;50.988;10.318;2023-01-27T09:08:38;99620.13;;;0.18;100.00
28181;BME280;15464;50.988;10.318;2023-01-27T09:11:13;99623.56;;;0.18;100.00
28181;BME280;15464;50.988;10.318;2023-01-27T09:13:41;99628.72;;;0.20;100.00
28181;BME280;15464;50.988;10.318;2023-01-27T09:16:08;99626.94;;;0.22;100.00
28181;BME280;15464;50.988;10.318;2023-01-27T09:18:35;99631.25;;;0.23;100.00
28181;BME280;15464;50.988;10.318;2023-01-27T09:21:03;99634.66;;;0.25;100.00
28181;BME280;15464;50.988;10.318;2023-01-27T09:23:31;99627.66;;;0.25;100.00
28181;BME280;15464;50.988;10.318;2023-01-27T09:25:57;99629.34;;;0.28;100.00
28181;BME280;15464;50.988;10.318;2023-01-27T09:28:24;99631.03;;;0.29;100.00
28181;BME280;15464;50.988;10.318;2023-01-27T09:30:56;99626.69;;;0.29;100.00
28181;BME280;15464;50.988;10.318;2023-01-27T09:33:23;99631.13;;;0.26;100.00
28181;BME280;15464;50.988;10.318;2023-01-27T09:35:58;99628.47;;;0.27;100.00
28181;BME280;15464;50.988;10.318;2023-01-27T09:38:29;99631.84;;;0.31;100.00
28181;BME280;15464;50.988;10.318;2023-01-27T09:41:24;99632.63;;;0.33;100.00
28181;BME280;15464;50.988;10.318;2023-01-27T09:47:19;99633.41;;;0.36;100.00
28181;BME280;15464;50.988;10.318;2023-01-27T09:53:13;99637.06;;;0.31;100.00
28181;BME280;15464;50.988;10.318;2023-01-27T10:02:14;99641.16;;;0.38;100.00
28181;BME280;15464;50.988;10.318;2023-01-27T10:09:30;99640.19;;;0.42;100.00
28181;BME280;15464;50.988;10.318;2023-01-27T10:17:50;99639.53;;;0.35;100.00
28181;BME280;15464;50.988;10.318;2023-01-27T10:20:24;99648.09;;;0.39;100.00
28181;BME280;15464;50.988;10.318;2023-01-27T10:25:41;99650.41;;;0.48;100.00
28181;BME280;15464;50.988;10.318;2023-01-27T10:28:14;99645.97;;;0.50;100.00
28181;BME280;15464;50.988;10.318;2023-01-27T10:30:53;99646.91;;;0.49;100.00
28181;BME280;15464;50.988;10.318;2023-01-27T10:33:54;99649.31;;;0.55;100.00
28181;BME280;15464;50.988;10.318;2023-01-27T10:36:37;99655.38;;;0.56;100.00
28181;BME280;15464;50.988;10.318;2023-01-27T10:39:11;99652.69;;;0.57;100.00
28181;BME280;15464;50.988;10.318;2023-01-27T10:42:13;99652.69;;;0.57;100.00
28181;BME280;15464;50.988;10.318;2023-01-27T10:53:43;99657.91;;;0.57;100.00
28181;BME280;15464;50.988;10.318;2023-01-27T10:59:09;99652.28;;;0.69;100.00
28181;BME280;15464;50.988;10.318;2023-01-27T11:01:52;99650.31;;;0.76;100.00
28181;BME280;15464;50.988;10.318;2023-01-27T11:04:40;99653.78;;;0.76;100.00
28181;BME280;15464;50.988;10.318;2023-01-27T11:07:19;99656.47;;;0.75;100.00
28181;BME280;15464;50.988;10.318;2023-01-27T11:10:06;99654.69;;;0.75;100.00
28181;BME280;15464;50.988;10.318;2023-01-27T11:12:35;99644.03;;;0.81;100.00
28181;BME280;15464;50.988;10.318;2023-01-27T11:15:22;99643.88;;;0.86;100.00
28181;BME280;15464;50.988;10.318;2023-01-27T11:20:42;99649.84;;;0.90;100.00
28181;BME280;15464;50.988;10.318;2023-01-27T11:28:44;99648.13;;;0.89;100.00
28181;BME280;15464;50.988;10.318;2023-01-27T11:31:36;99647.22;;;0.90;100.00
28181;BME280;15464;50.988;10.318;2023-01-27T11:37:21;99641.00;;;0.94;100.00
28181;BME280;15464;50.988;10.318;2023-01-27T11:39:50;99636.72;;;0.91;100.00
28181;BME280;15464;50.988;10.318;2023-01-27T11:42:17;99627.84;;;0.97;100.00
28181;BME280;15464;50.988;10.318;2023-01-27T11:44:44;99635.56;;;1.00;100.00
28181;BME280;15464;50.988;10.318;2023-01-27T11:47:23;99633.75;;;1.02;100.00
28181;BME280;15464;50.988;10.318;2023-01-27T11:49:53;99624.09;;;1.04;100.00
28181;BME280;15464;50.988;10.318;2023-01-27T11:52:22;99630.94;;;1.06;100.00
28181;BME280;15464;50.988;10.318;2023-01-27T11:57:41;99621.31;;;1.08;100.00
28181;BME280;15464;50.988;10.318;2023-01-27T12:00:49;99615.91;;;1.13;100.00
28181;BME280;15464;50.988;10.318;2023-01-27T12:03:18;99613.16;;;1.17;100.00
28181;BME280;15464;50.988;10.318;2023-01-27T12:05:52;99610.47;;;1.19;100.00
28181;BME280;15464;50.988;10.318;2023-01-27T12:08:38;99610.53;;;1.17;100.00
28181;BME280;15464;50.988;10.318;2023-01-27T12:11:23;99607.06;;;1.17;100.00
28181;BME280;15464;50.988;10.318;2023-01-27T12:14:01;99601.84;;;1.17;100.00
28181;BME280;15464;50.988;10.318;2023-01-27T12:19:04;99600.00;;;1.19;100.00
28181;BME280;15464;50.988;10.318;2023-01-27T12:21:49;99595.81;;;1.15;100.00
28181;BME280;15464;50.988;10.318;2023-01-27T12:24:31;99603.66;;;1.15;100.00
28181;BME280;15464;50.988;10.318;2023-01-27T12:27:00;99604.56;;;1.14;100.00
28181;BME280;15464;50.988;10.318;2023-01-27T12:29:45;99606.25;;;1.15;100.00
28181;BME280;15464;50.988;10.318;2023-01-27T12:32:21;99607.16;;;1.14;100.00
28181;BME280;15464;50.988;10.318;2023-01-27T12:34:51;99599.22;;;1.17;100.00
28181;BME280;15464;50.988;10.318;2023-01-27T12:37:26;99594.69;;;1.22;100.00
28181;BME280;15464;50.988;10.318;2023-01-27T12:39:58;99599.78;;;1.25;100.00
28181;BME280;15464;50.988;10.318;2023-01-27T12:44:59;99597.03;;;1.30;100.00
28181;BME280;15464;50.988;10.318;2023-01-27T12:47:27;99593.84;;;1.21;100.00
28181;BME280;15464;50.988;10.318;2023-01-27T12:50:18;99586.84;;;1.22;100.00
28181;BME280;15464;50.988;10.318;2023-01-27T12:52:52;99586.16;;;1.17;100.00
28181;BME280;15464;50.988;10.318;2023-01-27T12:55:32;99589.69;;;1.16;100.00
28181;BME280;15464;50.988;10.318;2023-01-27T12:57:59;99578.28;;;1.18;100.00
28181;BME280;15464;50.988;10.318;2023-01-27T13:00:27;99587.88;;;1.18;100.00
28181;BME280;15464;50.988;10.318;2023-01-27T13:03:04;99586.91;;;1.20;100.00
28181;BME280;15464;50.988;10.318;2023-01-27T13:05:38;99586.16;;;1.17;100.00
28181;BME280;15464;50.988;10.318;2023-01-27T13:08:13;99596.63;;;1.17;100.00
28181;BME280;15464;50.988;10.318;2023-01-27T13:10:55;99594.06;;;1.15;100.00
28181;BME280;15464;50.988;10.318;2023-01-27T13:13:25;99588.78;;;1.17;100.00
28181;BME280;15464;50.988;10.318;2023-01-27T13:16:25;99592.16;;;1.19;100.00
28181;BME280;15464;50.988;10.318;2023-01-27T13:18:58;99591.41;;;1.17;100.00
28181;BME280;15464;50.988;10.318;2023-01-27T13:21:35;99591.28;;;1.20;100.00
28181;BME280;15464;50.988;10.318;2023-01-27T13:24:09;99592.25;;;1.17;100.00
28181;BME280;15464;50.988;10.318;2023-01-27T13:26:39;99592.16;;;1.19;100.00
28181;BME280;15464;50.988;10.318;2023-01-27T13:29:27;99600.00;;;1.19;100.00
28181;BME280;15464;50.988;10.318;2023-01-27T13:32:04;99599.00;;;1.23;100.00
28181;BME280;15464;50.988;10.318;2023-01-27T13:37:17;99607.06;;;1.17;100.00
28181;BME280;15464;50.988;10.318;2023-01-27T13:44:44;99606.03;;;1.21;100.00
28181;BME280;15464;50.988;10.318;2023-01-27T13:47:28;99601.56;;;1.25;100.00
28181;BME280;15464;50.988;10.318;2023-01-27T13:50:01;99598.09;;;1.24;100.00
28181;BME280;15464;50.988;10.318;2023-01-27T13:52:30;99601.50;;;1.26;100.00
28181;BME280;15464;50.988;10.318;2023-01-27T13:54:57;99597.94;;;1.29;100.00
28181;BME280;15464;50.988;10.318;2023-01-27T13:57:50;99594.34;;;1.31;100.00
28181;BME280;15464;50.988;10.318;2023-01-27T14:00:20;99604.88;;;1.30;100.00
28181;BME280;15464;50.988;10.318;2023-01-27T14:19:14;99601.13;;;1.37;100.00
28181;BME280;15464;50.988;10.318;2023-01-27T14:22:08;99607.28;;;1.34;100.00
28181;BME280;15464;50.988;10.318;2023-01-27T14:36:16;99611.84;;;1.29;100.00
28181;BME280;15464;50.988;10.318;2023-01-27T14:41:36;99624.00;;;1.30;100.00
28181;BME280;15464;50.988;10.318;2023-01-27T14:47:20;99631.63;;;1.36;100.00